Tuesday, December 22, 2009

Stormy day!

Another day without flying, meteorology is at its best with gusts, rain, CB clouds, everything you can imagine.

>>> LPPT (LISBON) <<<
METAR 221230Z 27025G38KT 230V290 9999 VCSH FEW016 SCT020 16/12 Q0995       NOSIG

TAF 221215Z 2212/2318 26022G32KT 9999 SCT025 BECMG 2215/2217
 23010KT BECMG 2220/2222 17017KT 3000 RADZ BR SCT004 BKN012
 PROB30 TEMPO 2300/2305 VRB20G30KT 1000 +TSRA BR BKN001
 SCT016CB BECMG 2305/2307 24013KT 9999 NSW SCT018 TEMPO
 2305/2318 24017G27KT 5000 SHRA BKN015 FEW018CB

>>> LPFR (FARO) <<< 
METAR 221230Z 26021KT 9999 FEW020 FEW022TCU SCT059 18/14 Q1001

TAF 221115Z 2212/2312 25018KT 9999 SCT025 BECMG 2220/2222
 19017KT SCT012 BKN025 TEMPO 2222/2306 18020G30KT 3000 RADZ
 BR SCT004 BKN010 PROB30 TEMPO 2304/2308 VRB22G32KT 2000
 +TSRA BKN003 SCT020CB BECMG 2306/2308 24020KT SCT018 TEMPO
 2308/2312 24020G30KT 5000 SHRA SCT006 BKN015 FEW018CB

>>> LPPR (PORTO) <<< 
METAR 221230Z 33017KT 6000 -SHRA SCT006 SCT012 BKN020 11/09 Q0993

TAF 221225Z 2212/2312 31012KT 9999 SCT017 TEMPO 2212/2215
 31015G25KT 5000 SHRA SCT006 BKN015 BECMG 2215/2218 19005KT
 BECMG 2222/2224 15013KT 6000 -RADZ SCT008 BKN012 TEMPO
 2223/2306 15018G28KT 3000 RADZ BR SCT002 BKN006 BECMG
 2308/2310 24017KT

No comments: